sensor_id;sensor_type;location;lat;lon;timestamp;P1;durP1;ratioP1;P2;durP2;ratioP2
23088;SDS011;11713;48.506;8.966;2023-11-19T00:00:42;3.27;;;2.97;;
23088;SDS011;11713;48.506;8.966;2023-11-19T00:03:08;3.73;;;2.90;;
23088;SDS011;11713;48.506;8.966;2023-11-19T00:05:36;4.83;;;3.47;;
23088;SDS011;11713;48.506;8.966;2023-11-19T00:08:01;4.13;;;2.70;;
23088;SDS011;11713;48.506;8.966;2023-11-19T00:10:27;3.83;;;2.70;;
23088;SDS011;11713;48.506;8.966;2023-11-19T00:12:53;3.20;;;2.60;;
23088;SDS011;11713;48.506;8.966;2023-11-19T00:15:19;3.00;;;2.57;;
23088;SDS011;11713;48.506;8.966;2023-11-19T00:17:46;3.43;;;2.60;;
23088;SDS011;11713;48.506;8.966;2023-11-19T00:20:13;3.33;;;2.80;;
23088;SDS011;11713;48.506;8.966;2023-11-19T00:22:41;2.80;;;2.60;;
23088;SDS011;11713;48.506;8.966;2023-11-19T00:25:08;3.43;;;2.80;;
23088;SDS011;11713;48.506;8.966;2023-11-19T00:27:35;2.50;;;2.27;;
23088;SDS011;11713;48.506;8.966;2023-11-19T00:30:01;3.87;;;2.97;;
23088;SDS011;11713;48.506;8.966;2023-11-19T00:32:30;4.03;;;3.10;;
23088;SDS011;11713;48.506;8.966;2023-11-19T00:34:57;5.77;;;4.90;;
23088;SDS011;11713;48.506;8.966;2023-11-19T00:37:23;7.80;;;6.10;;
23088;SDS011;11713;48.506;8.966;2023-11-19T00:39:49;5.20;;;4.43;;
23088;SDS011;11713;48.506;8.966;2023-11-19T00:42:15;8.27;;;6.80;;
23088;SDS011;11713;48.506;8.966;2023-11-19T00:44:40;7.70;;;6.20;;
23088;SDS011;11713;48.506;8.966;2023-11-19T00:47:06;6.53;;;4.60;;
23088;SDS011;11713;48.506;8.966;2023-11-19T00:49:32;3.43;;;3.13;;
23088;SDS011;11713;48.506;8.966;2023-11-19T00:51:58;4.33;;;2.83;;
23088;SDS011;11713;48.506;8.966;2023-11-19T00:54:25;2.60;;;2.40;;
23088;SDS011;11713;48.506;8.966;2023-11-19T00:56:51;2.97;;;2.40;;
23088;SDS011;11713;48.506;8.966;2023-11-19T00:59:18;2.23;;;2.00;;
23088;SDS011;11713;48.506;8.966;2023-11-19T01:01:44;2.63;;;2.20;;
23088;SDS011;11713;48.506;8.966;2023-11-19T01:04:10;2.10;;;1.90;;
23088;SDS011;11713;48.506;8.966;2023-11-19T01:06:36;2.10;;;1.90;;
23088;SDS011;11713;48.506;8.966;2023-11-19T01:09:02;2.50;;;2.10;;
23088;SDS011;11713;48.506;8.966;2023-11-19T01:11:28;3.27;;;2.00;;
23088;SDS011;11713;48.506;8.966;2023-11-19T01:13:54;2.63;;;2.00;;
23088;SDS011;11713;48.506;8.966;2023-11-19T01:16:20;2.20;;;2.00;;
23088;SDS011;11713;48.506;8.966;2023-11-19T01:18:47;2.87;;;1.90;;
23088;SDS011;11713;48.506;8.966;2023-11-19T01:21:14;2.10;;;1.87;;
23088;SDS011;11713;48.506;8.966;2023-11-19T01:23:41;1.97;;;1.77;;
23088;SDS011;11713;48.506;8.966;2023-11-19T01:26:11;2.30;;;1.80;;
23088;SDS011;11713;48.506;8.966;2023-11-19T01:28:38;2.57;;;1.90;;
23088;SDS011;11713;48.506;8.966;2023-11-19T01:31:14;2.93;;;2.17;;
23088;SDS011;11713;48.506;8.966;2023-11-19T01:33:40;2.50;;;2.17;;
23088;SDS011;11713;48.506;8.966;2023-11-19T01:36:07;3.13;;;1.93;;
23088;SDS011;11713;48.506;8.966;2023-11-19T01:38:34;1.87;;;1.67;;
23088;SDS011;11713;48.506;8.966;2023-11-19T01:41:00;2.20;;;1.50;;
23088;SDS011;11713;48.506;8.966;2023-11-19T01:43:40;3.07;;;1.70;;
23088;SDS011;11713;48.506;8.966;2023-11-19T01:46:12;3.37;;;1.93;;
23088;SDS011;11713;48.506;8.966;2023-11-19T01:48:44;2.60;;;1.60;;
23088;SDS011;11713;48.506;8.966;2023-11-19T01:51:12;1.83;;;1.57;;
23088;SDS011;11713;48.506;8.966;2023-11-19T01:53:41;1.73;;;1.50;;
23088;SDS011;11713;48.506;8.966;2023-11-19T01:56:08;1.60;;;1.43;;
23088;SDS011;11713;48.506;8.966;2023-11-19T01:58:37;1.70;;;1.60;;
23088;SDS011;11713;48.506;8.966;2023-11-19T02:01:07;2.07;;;1.63;;
23088;SDS011;11713;48.506;8.966;2023-11-19T02:03:34;1.57;;;1.43;;
23088;SDS011;11713;48.506;8.966;2023-11-19T02:06:00;1.70;;;1.60;;
23088;SDS011;11713;48.506;8.966;2023-11-19T02:08:26;2.37;;;1.70;;
23088;SDS011;11713;48.506;8.966;2023-11-19T02:10:52;1.60;;;1.50;;
23088;SDS011;11713;48.506;8.966;2023-11-19T02:13:22;2.03;;;1.63;;
23088;SDS011;11713;48.506;8.966;2023-11-19T02:15:48;1.87;;;1.53;;
23088;SDS011;11713;48.506;8.966;2023-11-19T02:18:17;1.50;;;1.40;;
23088;SDS011;11713;48.506;8.966;2023-11-19T02:20:53;1.93;;;1.83;;
23088;SDS011;11713;48.506;8.966;2023-11-19T02:23:23;3.67;;;2.50;;
23088;SDS011;11713;48.506;8.966;2023-11-19T02:28:31;3.57;;;2.67;;
23088;SDS011;11713;48.506;8.966;2023-11-19T02:30:58;2.13;;;1.70;;
23088;SDS011;11713;48.506;8.966;2023-11-19T02:33:24;2.20;;;1.73;;
23088;SDS011;11713;48.506;8.966;2023-11-19T02:35:50;4.43;;;2.60;;
23088;SDS011;11713;48.506;8.966;2023-11-19T02:38:16;5.40;;;3.00;;
23088;SDS011;11713;48.506;8.966;2023-11-19T02:40:42;4.43;;;3.00;;
23088;SDS011;11713;48.506;8.966;2023-11-19T02:43:08;3.13;;;1.90;;
23088;SDS011;11713;48.506;8.966;2023-11-19T02:45:34;3.40;;;2.30;;
23088;SDS011;11713;48.506;8.966;2023-11-19T02:48:01;3.33;;;2.23;;
23088;SDS011;11713;48.506;8.966;2023-11-19T02:50:27;3.40;;;1.83;;
23088;SDS011;11713;48.506;8.966;2023-11-19T02:52:54;3.60;;;2.80;;
23088;SDS011;11713;48.506;8.966;2023-11-19T02:55:21;2.53;;;2.13;;
23088;SDS011;11713;48.506;8.966;2023-11-19T02:57:49;3.40;;;2.20;;
23088;SDS011;11713;48.506;8.966;2023-11-19T03:00:15;2.00;;;1.80;;
23088;SDS011;11713;48.506;8.966;2023-11-19T03:02:42;2.53;;;1.90;;
23088;SDS011;11713;48.506;8.966;2023-11-19T03:05:16;2.10;;;1.80;;
23088;SDS011;11713;48.506;8.966;2023-11-19T03:07:42;2.53;;;1.67;;
23088;SDS011;11713;48.506;8.966;2023-11-19T03:10:11;1.87;;;1.50;;
23088;SDS011;11713;48.506;8.966;2023-11-19T03:12:41;1.50;;;1.40;;
23088;SDS011;11713;48.506;8.966;2023-11-19T03:15:09;1.73;;;1.23;;
23088;SDS011;11713;48.506;8.966;2023-11-19T03:17:38;2.37;;;1.20;;
23088;SDS011;11713;48.506;8.966;2023-11-19T03:20:06;1.70;;;1.40;;
23088;SDS011;11713;48.506;8.966;2023-11-19T03:22:37;1.40;;;1.10;;
23088;SDS011;11713;48.506;8.966;2023-11-19T03:25:03;1.80;;;0.90;;
23088;SDS011;11713;48.506;8.966;2023-11-19T03:27:30;1.53;;;1.03;;
23088;SDS011;11713;48.506;8.966;2023-11-19T03:29:55;1.30;;;1.10;;
23088;SDS011;11713;48.506;8.966;2023-11-19T03:32:21;0.93;;;0.90;;
23088;SDS011;11713;48.506;8.966;2023-11-19T03:34:47;1.03;;;0.93;;
23088;SDS011;11713;48.506;8.966;2023-11-19T03:37:13;1.90;;;1.30;;
23088;SDS011;11713;48.506;8.966;2023-11-19T03:39:42;1.20;;;1.10;;
23088;SDS011;11713;48.506;8.966;2023-11-19T03:42:08;1.93;;;1.20;;
23088;SDS011;11713;48.506;8.966;2023-11-19T03:44:34;2.80;;;1.20;;
23088;SDS011;11713;48.506;8.966;2023-11-19T03:47:00;2.50;;;1.40;;
23088;SDS011;11713;48.506;8.966;2023-11-19T03:49:26;3.03;;;1.27;;
23088;SDS011;11713;48.506;8.966;2023-11-19T03:51:52;2.40;;;1.10;;
23088;SDS011;11713;48.506;8.966;2023-11-19T03:54:17;1.67;;;0.97;;
23088;SDS011;11713;48.506;8.966;2023-11-19T03:56:43;1.27;;;1.17;;
23088;SDS011;11713;48.506;8.966;2023-11-19T03:59:09;1.30;;;1.20;;
23088;SDS011;11713;48.506;8.966;2023-11-19T04:01:35;1.50;;;1.30;;
23088;SDS011;11713;48.506;8.966;2023-11-19T04:04:02;1.03;;;0.93;;
23088;SDS011;11713;48.506;8.966;2023-11-19T04:06:28;2.10;;;1.03;;
23088;SDS011;11713;48.506;8.966;2023-11-19T04:08:54;0.80;;;0.80;;
23088;SDS011;11713;48.506;8.966;2023-11-19T04:11:20;0.80;;;0.80;;
23088;SDS011;11713;48.506;8.966;2023-11-19T04:13:46;1.07;;;0.80;;
23088;SDS011;11713;48.506;8.966;2023-11-19T04:16:12;1.10;;;1.00;;
23088;SDS011;11713;48.506;8.966;2023-11-19T04:18:38;2.17;;;1.27;;
23088;SDS011;11713;48.506;8.966;2023-11-19T04:21:05;1.20;;;0.97;;
23088;SDS011;11713;48.506;8.966;2023-11-19T04:23:32;1.30;;;1.20;;
23088;SDS011;11713;48.506;8.966;2023-11-19T04:25:58;1.27;;;1.17;;
23088;SDS011;11713;48.506;8.966;2023-11-19T04:28:26;1.20;;;1.10;;
23088;SDS011;11713;48.506;8.966;2023-11-19T04:30:52;1.30;;;1.20;;
23088;SDS011;11713;48.506;8.966;2023-11-19T04:33:18;1.50;;;1.20;;
23088;SDS011;11713;48.506;8.966;2023-11-19T04:35:44;2.53;;;1.10;;
23088;SDS011;11713;48.506;8.966;2023-11-19T04:38:10;1.80;;;1.53;;
23088;SDS011;11713;48.506;8.966;2023-11-19T04:40:36;1.37;;;1.27;;
23088;SDS011;11713;48.506;8.966;2023-11-19T04:43:01;1.57;;;1.20;;
23088;SDS011;11713;48.506;8.966;2023-11-19T04:45:27;1.17;;;1.07;;
23088;SDS011;11713;48.506;8.966;2023-11-19T04:47:53;1.00;;;1.00;;
23088;SDS011;11713;48.506;8.966;2023-11-19T04:50:19;1.00;;;0.90;;
23088;SDS011;11713;48.506;8.966;2023-11-19T04:52:45;1.27;;;0.97;;
23088;SDS011;11713;48.506;8.966;2023-11-19T04:55:12;0.70;;;0.70;;
23088;SDS011;11713;48.506;8.966;2023-11-19T04:57:39;1.03;;;0.70;;
23088;SDS011;11713;48.506;8.966;2023-11-19T05:00:05;1.03;;;0.60;;
23088;SDS011;11713;48.506;8.966;2023-11-19T05:02:36;0.80;;;0.50;;
23088;SDS011;11713;48.506;8.966;2023-11-19T05:05:05;0.80;;;0.80;;
23088;SDS011;11713;48.506;8.966;2023-11-19T05:07:32;0.70;;;0.70;;
23088;SDS011;11713;48.506;8.966;2023-11-19T05:09:58;0.97;;;0.57;;
23088;SDS011;11713;48.506;8.966;2023-11-19T05:12:24;0.50;;;0.50;;
23088;SDS011;11713;48.506;8.966;2023-11-19T05:14:50;0.90;;;0.80;;
23088;SDS011;11713;48.506;8.966;2023-11-19T05:17:19;1.10;;;0.70;;
23088;SDS011;11713;48.506;8.966;2023-11-19T05:19:45;0.80;;;0.80;;
23088;SDS011;11713;48.506;8.966;2023-11-19T05:22:12;1.27;;;1.03;;
23088;SDS011;11713;48.506;8.966;2023-11-19T05:24:38;1.47;;;1.03;;
23088;SDS011;11713;48.506;8.966;2023-11-19T05:27:06;0.80;;;0.73;;
23088;SDS011;11713;48.506;8.966;2023-11-19T05:29:33;1.00;;;0.70;;
23088;SDS011;11713;48.506;8.966;2023-11-19T05:31:58;0.50;;;0.50;;
23088;SDS011;11713;48.506;8.966;2023-11-19T05:34:24;0.47;;;0.47;;
23088;SDS011;11713;48.506;8.966;2023-11-19T05:36:51;1.17;;;0.60;;
23088;SDS011;11713;48.506;8.966;2023-11-19T05:39:17;0.70;;;0.53;;
23088;SDS011;11713;48.506;8.966;2023-11-19T05:41:46;1.00;;;0.90;;
23088;SDS011;11713;48.506;8.966;2023-11-19T05:44:12;0.73;;;0.70;;
23088;SDS011;11713;48.506;8.966;2023-11-19T05:46:38;1.17;;;1.07;;
23088;SDS011;11713;48.506;8.966;2023-11-19T05:49:08;1.50;;;0.60;;
23088;SDS011;11713;48.506;8.966;2023-11-19T05:51:37;0.70;;;0.67;;
23088;SDS011;11713;48.506;8.966;2023-11-19T05:54:04;1.90;;;0.70;;
23088;SDS011;11713;48.506;8.966;2023-11-19T05:56:35;0.50;;;0.50;;
23088;SDS011;11713;48.506;8.966;2023-11-19T05:59:01;1.40;;;0.90;;
23088;SDS011;11713;48.506;8.966;2023-11-19T06:01:29;0.70;;;0.70;;
23088;SDS011;11713;48.506;8.966;2023-11-19T06:03:55;1.33;;;0.70;;
23088;SDS011;11713;48.506;8.966;2023-11-19T06:06:20;1.10;;;0.90;;
23088;SDS011;11713;48.506;8.966;2023-11-19T06:08:46;1.00;;;0.90;;
23088;SDS011;11713;48.506;8.966;2023-11-19T06:11:12;0.60;;;0.60;;
23088;SDS011;11713;48.506;8.966;2023-11-19T06:13:43;1.27;;;0.60;;
23088;SDS011;11713;48.506;8.966;2023-11-19T06:16:09;0.67;;;0.63;;
23088;SDS011;11713;48.506;8.966;2023-11-19T06:18:39;1.10;;;0.67;;
23088;SDS011;11713;48.506;8.966;2023-11-19T06:21:06;1.60;;;0.60;;
23088;SDS011;11713;48.506;8.966;2023-11-19T06:23:32;0.60;;;0.60;;
23088;SDS011;11713;48.506;8.966;2023-11-19T06:25:58;1.10;;;1.00;;
23088;SDS011;11713;48.506;8.966;2023-11-19T06:28:24;5.60;;;4.23;;
23088;SDS011;11713;48.506;8.966;2023-11-19T06:30:50;1.53;;;1.30;;
23088;SDS011;11713;48.506;8.966;2023-11-19T06:33:16;4.43;;;3.07;;
23088;SDS011;11713;48.506;8.966;2023-11-19T06:35:43;1.83;;;1.50;;
23088;SDS011;11713;48.506;8.966;2023-11-19T06:38:09;1.27;;;1.17;;
23088;SDS011;11713;48.506;8.966;2023-11-19T06:40:35;1.20;;;1.10;;
23088;SDS011;11713;48.506;8.966;2023-11-19T06:43:01;1.80;;;1.17;;
23088;SDS011;11713;48.506;8.966;2023-11-19T06:45:28;0.90;;;0.80;;
23088;SDS011;11713;48.506;8.966;2023-11-19T06:47:55;1.50;;;1.00;;
23088;SDS011;11713;48.506;8.966;2023-11-19T06:50:21;1.43;;;1.30;;
23088;SDS011;11713;48.506;8.966;2023-11-19T06:52:47;2.40;;;2.07;;
23088;SDS011;11713;48.506;8.966;2023-11-19T06:55:13;3.77;;;1.93;;
23088;SDS011;11713;48.506;8.966;2023-11-19T06:57:39;1.53;;;1.43;;
23088;SDS011;11713;48.506;8.966;2023-11-19T07:00:05;1.60;;;1.33;;
23088;SDS011;11713;48.506;8.966;2023-11-19T07:02:31;1.20;;;1.10;;
23088;SDS011;11713;48.506;8.966;2023-11-19T07:04:57;1.20;;;1.10;;
23088;SDS011;11713;48.506;8.966;2023-11-19T07:07:23;1.40;;;1.03;;
23088;SDS011;11713;48.506;8.966;2023-11-19T07:09:49;1.70;;;1.43;;
23088;SDS011;11713;48.506;8.966;2023-11-19T07:12:15;1.00;;;0.90;;
23088;SDS011;11713;48.506;8.966;2023-11-19T07:14:41;0.93;;;0.90;;
23088;SDS011;11713;48.506;8.966;2023-11-19T07:17:07;1.13;;;1.03;;
23088;SDS011;11713;48.506;8.966;2023-11-19T07:19:36;2.10;;;1.83;;
23088;SDS011;11713;48.506;8.966;2023-11-19T07:22:03;2.87;;;2.50;;
23088;SDS011;11713;48.506;8.966;2023-11-19T07:24:29;1.53;;;1.43;;
23088;SDS011;11713;48.506;8.966;2023-11-19T07:26:55;0.90;;;0.90;;
23088;SDS011;11713;48.506;8.966;2023-11-19T07:29:21;1.30;;;0.80;;
23088;SDS011;11713;48.506;8.966;2023-11-19T07:31:48;0.67;;;0.67;;
23088;SDS011;11713;48.506;8.966;2023-11-19T07:34:14;1.00;;;0.83;;
23088;SDS011;11713;48.506;8.966;2023-11-19T07:36:40;0.80;;;0.70;;
23088;SDS011;11713;48.506;8.966;2023-11-19T07:39:06;0.60;;;0.60;;
23088;SDS011;11713;48.506;8.966;2023-11-19T07:41:33;0.73;;;0.73;;
23088;SDS011;11713;48.506;8.966;2023-11-19T07:44:03;1.30;;;0.80;;
23088;SDS011;11713;48.506;8.966;2023-11-19T07:46:29;1.70;;;1.03;;
23088;SDS011;11713;48.506;8.966;2023-11-19T07:48:55;1.33;;;0.90;;
23088;SDS011;11713;48.506;8.966;2023-11-19T07:51:21;1.83;;;0.90;;
23088;SDS011;11713;48.506;8.966;2023-11-19T07:53:47;1.37;;;1.17;;
23088;SDS011;11713;48.506;8.966;2023-11-19T07:56:12;1.27;;;1.00;;
23088;SDS011;11713;48.506;8.966;2023-11-19T07:58:38;1.20;;;1.03;;
23088;SDS011;11713;48.506;8.966;2023-11-19T08:01:04;1.10;;;1.00;;
23088;SDS011;11713;48.506;8.966;2023-11-19T08:03:32;1.40;;;1.30;;
23088;SDS011;11713;48.506;8.966;2023-11-19T08:06:01;1.00;;;0.90;;
23088;SDS011;11713;48.506;8.966;2023-11-19T08:08:29;1.40;;;1.30;;
23088;SDS011;11713;48.506;8.966;2023-11-19T08:10:55;1.80;;;1.13;;
23088;SDS011;11713;48.506;8.966;2023-11-19T08:13:23;1.20;;;0.87;;
23088;SDS011;11713;48.506;8.966;2023-11-19T08:15:50;3.87;;;2.37;;
23088;SDS011;11713;48.506;8.966;2023-11-19T08:18:17;1.90;;;1.67;;
23088;SDS011;11713;48.506;8.966;2023-11-19T08:20:44;1.47;;;1.37;;
23088;SDS011;11713;48.506;8.966;2023-11-19T08:23:12;1.17;;;1.07;;
23088;SDS011;11713;48.506;8.966;2023-11-19T08:25:38;1.00;;;0.90;;
23088;SDS011;11713;48.506;8.966;2023-11-19T08:28:05;1.83;;;1.20;;
23088;SDS011;11713;48.506;8.966;2023-11-19T08:30:33;1.07;;;0.97;;
23088;SDS011;11713;48.506;8.966;2023-11-19T08:32:59;2.03;;;1.17;;
23088;SDS011;11713;48.506;8.966;2023-11-19T08:35:28;2.03;;;1.20;;
23088;SDS011;11713;48.506;8.966;2023-11-19T08:37:58;2.03;;;1.60;;
23088;SDS011;11713;48.506;8.966;2023-11-19T08:40:24;2.03;;;1.27;;
23088;SDS011;11713;48.506;8.966;2023-11-19T08:42:51;1.33;;;1.23;;
23088;SDS011;11713;48.506;8.966;2023-11-19T08:45:17;1.37;;;0.97;;
23088;SDS011;11713;48.506;8.966;2023-11-19T08:47:44;1.33;;;0.97;;
23088;SDS011;11713;48.506;8.966;2023-11-19T08:50:11;3.50;;;1.37;;
23088;SDS011;11713;48.506;8.966;2023-11-19T08:52:39;1.70;;;1.20;;
23088;SDS011;11713;48.506;8.966;2023-11-19T08:55:05;1.33;;;1.23;;
23088;SDS011;11713;48.506;8.966;2023-11-19T08:57:31;1.40;;;1.10;;
23088;SDS011;11713;48.506;8.966;2023-11-19T08:59:59;1.63;;;1.10;;
23088;SDS011;11713;48.506;8.966;2023-11-19T09:02:34;1.10;;;1.00;;
23088;SDS011;11713;48.506;8.966;2023-11-19T09:05:02;2.80;;;0.93;;
23088;SDS011;11713;48.506;8.966;2023-11-19T09:07:29;2.00;;;0.80;;
23088;SDS011;11713;48.506;8.966;2023-11-19T09:09:56;1.10;;;1.00;;
23088;SDS011;11713;48.506;8.966;2023-11-19T09:12:22;1.60;;;1.30;;
23088;SDS011;11713;48.506;8.966;2023-11-19T09:14:48;2.70;;;1.30;;
23088;SDS011;11713;48.506;8.966;2023-11-19T09:17:15;1.83;;;1.53;;
23088;SDS011;11713;48.506;8.966;2023-11-19T09:19:42;2.47;;;1.23;;
23088;SDS011;11713;48.506;8.966;2023-11-19T09:22:09;1.97;;;1.63;;
23088;SDS011;11713;48.506;8.966;2023-11-19T09:24:35;0.93;;;0.93;;
23088;SDS011;11713;48.506;8.966;2023-11-19T09:27:01;2.50;;;1.90;;
23088;SDS011;11713;48.506;8.966;2023-11-19T09:29:26;1.80;;;1.40;;
23088;SDS011;11713;48.506;8.966;2023-11-19T09:31:52;2.03;;;1.70;;
23088;SDS011;11713;48.506;8.966;2023-11-19T09:34:19;1.83;;;1.30;;
23088;SDS011;11713;48.506;8.966;2023-11-19T09:36:45;1.70;;;1.60;;
23088;SDS011;11713;48.506;8.966;2023-11-19T09:39:11;1.60;;;1.23;;
23088;SDS011;11713;48.506;8.966;2023-11-19T09:41:40;1.33;;;1.23;;
23088;SDS011;11713;48.506;8.966;2023-11-19T09:44:07;1.93;;;1.70;;
23088;SDS011;11713;48.506;8.966;2023-11-19T09:46:34;2.17;;;1.50;;
23088;SDS011;11713;48.506;8.966;2023-11-19T09:49:02;1.37;;;1.20;;
23088;SDS011;11713;48.506;8.966;2023-11-19T09:51:29;0.97;;;0.83;;
23088;SDS011;11713;48.506;8.966;2023-11-19T09:53:55;4.30;;;1.10;;
23088;SDS011;11713;48.506;8.966;2023-11-19T09:56:21;0.70;;;0.70;;
23088;SDS011;11713;48.506;8.966;2023-11-19T09:58:49;1.83;;;1.00;;
23088;SDS011;11713;48.506;8.966;2023-11-19T10:01:15;2.50;;;1.30;;
23088;SDS011;11713;48.506;8.966;2023-11-19T10:03:41;1.67;;;1.50;;
23088;SDS011;11713;48.506;8.966;2023-11-19T10:06:09;1.67;;;1.50;;
23088;SDS011;11713;48.506;8.966;2023-11-19T10:08:37;1.23;;;1.10;;
23088;SDS011;11713;48.506;8.966;2023-11-19T10:11:07;1.10;;;0.80;;
23088;SDS011;11713;48.506;8.966;2023-11-19T10:13:37;0.50;;;0.50;;
23088;SDS011;11713;48.506;8.966;2023-11-19T10:16:10;3.03;;;0.90;;
23088;SDS011;11713;48.506;8.966;2023-11-19T10:18:42;2.53;;;1.53;;
23088;SDS011;11713;48.506;8.966;2023-11-19T10:21:14;0.83;;;0.83;;
23088;SDS011;11713;48.506;8.966;2023-11-19T10:23:48;1.10;;;1.00;;
23088;SDS011;11713;48.506;8.966;2023-11-19T10:26:19;1.80;;;0.90;;
23088;SDS011;11713;48.506;8.966;2023-11-19T10:28:46;0.70;;;0.70;;
23088;SDS011;11713;48.506;8.966;2023-11-19T10:31:13;1.40;;;1.10;;
23088;SDS011;11713;48.506;8.966;2023-11-19T10:33:43;1.13;;;0.80;;
23088;SDS011;11713;48.506;8.966;2023-11-19T10:36:11;0.60;;;0.60;;
23088;SDS011;11713;48.506;8.966;2023-11-19T10:38:37;0.60;;;0.60;;
23088;SDS011;11713;48.506;8.966;2023-11-19T10:41:04;0.60;;;0.60;;
23088;SDS011;11713;48.506;8.966;2023-11-19T10:43:30;0.70;;;0.67;;
23088;SDS011;11713;48.506;8.966;2023-11-19T10:46:12;0.60;;;0.60;;
23088;SDS011;11713;48.506;8.966;2023-11-19T10:48:39;0.60;;;0.60;;
23088;SDS011;11713;48.506;8.966;2023-11-19T10:51:06;0.63;;;0.63;;
23088;SDS011;11713;48.506;8.966;2023-11-19T10:53:37;1.03;;;0.90;;
23088;SDS011;11713;48.506;8.966;2023-11-19T10:56:09;0.80;;;0.80;;
23088;SDS011;11713;48.506;8.966;2023-11-19T10:58:36;1.77;;;1.00;;
23088;SDS011;11713;48.506;8.966;2023-11-19T11:01:11;0.70;;;0.63;;
23088;SDS011;11713;48.506;8.966;2023-11-19T11:03:41;13.40;;;8.23;;
23088;SDS011;11713;48.506;8.966;2023-11-19T11:06:11;14.07;;;8.17;;
23088;SDS011;11713;48.506;8.966;2023-11-19T11:08:38;1.77;;;1.33;;
23088;SDS011;11713;48.506;8.966;2023-11-19T11:11:05;2.97;;;2.00;;
23088;SDS011;11713;48.506;8.966;2023-11-19T11:13:33;0.80;;;0.80;;
23088;SDS011;11713;48.506;8.966;2023-11-19T11:16:01;1.10;;;0.90;;
23088;SDS011;11713;48.506;8.966;2023-11-19T11:18:29;0.50;;;0.50;;
23088;SDS011;11713;48.506;8.966;2023-11-19T11:21:05;1.47;;;0.90;;
23088;SDS011;11713;48.506;8.966;2023-11-19T11:37:30;0.80;;;0.70;;
23088;SDS011;11713;48.506;8.966;2023-11-19T11:40:00;0.50;;;0.50;;
23088;SDS011;11713;48.506;8.966;2023-11-19T11:42:31;0.40;;;0.40;;
23088;SDS011;11713;48.506;8.966;2023-11-19T11:50:12;0.40;;;0.40;;
23088;SDS011;11713;48.506;8.966;2023-11-19T11:55:26;1.00;;;0.50;;
23088;SDS011;11713;48.506;8.966;2023-11-19T11:58:28;0.93;;;0.70;;
23088;SDS011;11713;48.506;8.966;2023-11-19T12:00:59;0.70;;;0.70;;
23088;SDS011;11713;48.506;8.966;2023-11-19T12:03:27;0.50;;;0.50;;
23088;SDS011;11713;48.506;8.966;2023-11-19T12:05:55;1.67;;;1.20;;
23088;SDS011;11713;48.506;8.966;2023-11-19T12:08:24;0.87;;;0.80;;
23088;SDS011;11713;48.506;8.966;2023-11-19T12:10:52;0.60;;;0.60;;
23088;SDS011;11713;48.506;8.966;2023-11-19T12:13:29;0.77;;;0.77;;
23088;SDS011;11713;48.506;8.966;2023-11-19T12:16:31;0.80;;;0.80;;
23088;SDS011;11713;48.506;8.966;2023-11-19T12:19:03;0.70;;;0.70;;
23088;SDS011;11713;48.506;8.966;2023-11-19T12:21:33;2.30;;;1.70;;
23088;SDS011;11713;48.506;8.966;2023-11-19T12:24:01;1.53;;;0.90;;
23088;SDS011;11713;48.506;8.966;2023-11-19T12:26:36;1.13;;;0.90;;
23088;SDS011;11713;48.506;8.966;2023-11-19T12:29:03;1.77;;;1.20;;
23088;SDS011;11713;48.506;8.966;2023-11-19T12:31:31;2.37;;;1.40;;
23088;SDS011;11713;48.506;8.966;2023-11-19T12:33:57;1.03;;;0.77;;
23088;SDS011;11713;48.506;8.966;2023-11-19T12:36:23;1.83;;;1.00;;
23088;SDS011;11713;48.506;8.966;2023-11-19T12:38:49;1.70;;;1.17;;
23088;SDS011;11713;48.506;8.966;2023-11-19T12:41:16;1.20;;;0.97;;
23088;SDS011;11713;48.506;8.966;2023-11-19T12:43:45;2.27;;;1.00;;
23088;SDS011;11713;48.506;8.966;2023-11-19T12:48:48;1.03;;;0.70;;
23088;SDS011;11713;48.506;8.966;2023-11-19T12:51:14;1.73;;;0.88;;
23088;SDS011;11713;48.506;8.966;2023-11-19T12:53:47;1.00;;;0.90;;
23088;SDS011;11713;48.506;8.966;2023-11-19T12:56:19;1.17;;;1.00;;
23088;SDS011;11713;48.506;8.966;2023-11-19T12:58:46;1.53;;;0.83;;
23088;SDS011;11713;48.506;8.966;2023-11-19T13:01:17;2.03;;;0.80;;
23088;SDS011;11713;48.506;8.966;2023-11-19T13:03:44;2.13;;;0.60;;
23088;SDS011;11713;48.506;8.966;2023-11-19T13:06:11;2.08;;;1.15;;
23088;SDS011;11713;48.506;8.966;2023-11-19T13:08:46;2.17;;;0.70;;
23088;SDS011;11713;48.506;8.966;2023-11-19T13:11:30;2.20;;;0.70;;
23088;SDS011;11713;48.506;8.966;2023-11-19T13:14:01;0.50;;;0.50;;
23088;SDS011;11713;48.506;8.966;2023-11-19T13:16:41;0.80;;;0.80;;
23088;SDS011;11713;48.506;8.966;2023-11-19T13:19:15;2.08;;;0.70;;
23088;SDS011;11713;48.506;8.966;2023-11-19T13:21:45;1.30;;;0.70;;
23088;SDS011;11713;48.506;8.966;2023-11-19T13:24:14;0.98;;;0.50;;
23088;SDS011;11713;48.506;8.966;2023-11-19T13:26:39;0.95;;;0.70;;
23088;SDS011;11713;48.506;8.966;2023-11-19T13:29:05;0.90;;;0.82;;
23088;SDS011;11713;48.506;8.966;2023-11-19T13:31:31;3.70;;;1.75;;
23088;SDS011;11713;48.506;8.966;2023-11-19T13:33:57;2.42;;;0.70;;
23088;SDS011;11713;48.506;8.966;2023-11-19T13:36:24;0.55;;;0.50;;
23088;SDS011;11713;48.506;8.966;2023-11-19T13:38:51;0.68;;;0.57;;
23088;SDS011;11713;48.506;8.966;2023-11-19T13:41:17;1.23;;;0.70;;
23088;SDS011;11713;48.506;8.966;2023-11-19T13:43:43;1.38;;;0.60;;
23088;SDS011;11713;48.506;8.966;2023-11-19T13:46:09;2.35;;;0.70;;
23088;SDS011;11713;48.506;8.966;2023-11-19T13:48:35;0.88;;;0.70;;
23088;SDS011;11713;48.506;8.966;2023-11-19T13:51:00;1.05;;;0.60;;
23088;SDS011;11713;48.506;8.966;2023-11-19T13:53:26;1.70;;;0.60;;
23088;SDS011;11713;48.506;8.966;2023-11-19T13:55:52;2.00;;;0.80;;
23088;SDS011;11713;48.506;8.966;2023-11-19T13:58:18;1.42;;;0.68;;
23088;SDS011;11713;48.506;8.966;2023-11-19T14:00:44;1.95;;;0.60;;
23088;SDS011;11713;48.506;8.966;2023-11-19T14:03:10;0.85;;;0.60;;
23088;SDS011;11713;48.506;8.966;2023-11-19T14:05:36;0.40;;;0.40;;
23088;SDS011;11713;48.506;8.966;2023-11-19T14:08:03;1.20;;;0.70;;
23088;SDS011;11713;48.506;8.966;2023-11-19T14:10:37;1.25;;;0.50;;
23088;SDS011;11713;48.506;8.966;2023-11-19T14:13:08;2.97;;;1.00;;
23088;SDS011;11713;48.506;8.966;2023-11-19T14:15:34;3.80;;;0.77;;
23088;SDS011;11713;48.506;8.966;2023-11-19T14:18:01;1.10;;;0.70;;
23088;SDS011;11713;48.506;8.966;2023-11-19T14:20:28;0.63;;;0.63;;
23088;SDS011;11713;48.506;8.966;2023-11-19T14:22:54;1.13;;;0.60;;
23088;SDS011;11713;48.506;8.966;2023-11-19T14:25:19;2.78;;;1.60;;
23088;SDS011;11713;48.506;8.966;2023-11-19T14:27:46;2.45;;;0.90;;
23088;SDS011;11713;48.506;8.966;2023-11-19T14:30:12;1.25;;;0.70;;
23088;SDS011;11713;48.506;8.966;2023-11-19T14:32:39;2.05;;;0.70;;
23088;SDS011;11713;48.506;8.966;2023-11-19T14:35:06;2.22;;;0.80;;
23088;SDS011;11713;48.506;8.966;2023-11-19T14:37:32;1.88;;;0.80;;
23088;SDS011;11713;48.506;8.966;2023-11-19T14:39:59;1.00;;;0.82;;
23088;SDS011;11713;48.506;8.966;2023-11-19T14:42:26;0.95;;;0.70;;
23088;SDS011;11713;48.506;8.966;2023-11-19T14:44:52;1.10;;;1.00;;
23088;SDS011;11713;48.506;8.966;2023-11-19T14:47:18;1.85;;;1.25;;
23088;SDS011;11713;48.506;8.966;2023-11-19T14:49:45;1.10;;;0.95;;
23088;SDS011;11713;48.506;8.966;2023-11-19T14:52:12;0.95;;;0.60;;
23088;SDS011;11713;48.506;8.966;2023-11-19T14:54:39;1.92;;;0.52;;
23088;SDS011;11713;48.506;8.966;2023-11-19T14:57:05;1.33;;;0.70;;
23088;SDS011;11713;48.506;8.966;2023-11-19T14:59:34;0.73;;;0.60;;
23088;SDS011;11713;48.506;8.966;2023-11-19T15:02:01;1.42;;;0.70;;
23088;SDS011;11713;48.506;8.966;2023-11-19T15:04:27;1.23;;;0.80;;
23088;SDS011;11713;48.506;8.966;2023-11-19T15:06:58;1.67;;;0.75;;
23088;SDS011;11713;48.506;8.966;2023-11-19T15:09:25;1.60;;;0.97;;
23088;SDS011;11713;48.506;8.966;2023-11-19T15:11:55;0.60;;;0.60;;
23088;SDS011;11713;48.506;8.966;2023-11-19T15:14:23;2.10;;;0.80;;
23088;SDS011;11713;48.506;8.966;2023-11-19T15:16:53;1.73;;;0.70;;